Time;durP1;ratioP1;P1;durP2;ratioP2;P2;SDS_P1;SDS_P2;PMS_P1;PMS_P2;Temp;Humidity;BMP_temperature;BMP_pressure;BME280_temperature;BME280_humidity;BME280_pressure;Samples;Min_cycle;Max_cycle;Signal;HPM_P1;HPM_P2
2023/10/07 00:00:48;;;;;;;0.20;0.10;;;;;;;29.82;85.26;100196.41;7393294;19;20483;-51
2023/10/07 00:03:17;;;;;;;0.10;0.10;;;;;;;29.31;84.86;100203.19;7394970;19;20015;-52
2023/10/07 00:05:47;;;;;;;0.55;0.28;;;;;;;29.55;84.31;100199.31;7395076;19;20022;-52
2023/10/07 00:08:16;;;;;;;0.45;0.22;;;;;;;27.96;91.22;100203.59;7395273;19;20017;-52
2023/10/07 00:10:46;;;;;;;0.20;0.20;;;;;;;28.00;91.61;100195.41;7394778;19;20082;-52
2023/10/07 00:13:13;;;;;;;2.13;0.20;;;;;;;27.59;93.04;100194.03;7396720;19;20014;-52
2023/10/07 00:15:48;;;;;;;0.40;0.00;;;;;;;28.62;91.08;100199.03;7397377;19;20006;-51
2023/10/07 00:18:15;;;;;;;1.27;0.35;;;;;;;28.48;87.93;100198.59;7393255;19;20010;-51
2023/10/07 00:20:51;;;;;;;0.10;0.00;;;;;;;28.65;87.62;100206.47;7392955;19;20014;-52
2023/10/07 00:23:22;;;;;;;0.52;0.15;;;;;;;27.88;91.07;100210.75;7394675;19;20010;-52
2023/10/07 00:25:50;;;;;;;0.10;0.00;;;;;;;27.20;97.63;100209.22;7397503;19;20074;-52
2023/10/07 00:28:35;;;;;;;1.10;0.60;;;;;;;27.10;96.63;100196.91;7394741;19;20360;-52
2023/10/07 00:31:06;;;;;;;1.70;0.10;;;;;;;29.49;83.36;100189.50;7393574;19;20353;-52
2023/10/07 00:36:41;;;;;;;0.00;0.00;;;;;;;32.75;65.44;100155.91;7395993;19;20022;-52
2023/10/07 00:39:08;;;;;;;1.00;0.10;;;;;;;32.78;62.01;100154.69;7393931;19;20011;-52
2023/10/07 00:41:54;;;;;;;2.50;0.32;;;;;;;32.50;61.71;100161.53;7392498;19;20070;-52
2023/10/07 00:44:23;;;;;;;0.10;0.00;;;;;;;32.27;61.47;100166.44;7393451;19;20018;-52
2023/10/07 00:47:11;;;;;;;0.20;0.10;;;;;;;32.50;60.52;100189.59;7393416;19;20019;-52
2023/10/07 00:49:42;;;;;;;0.30;0.10;;;;;;;32.17;60.55;100184.56;7390969;19;20015;-52
2023/10/07 00:52:27;;;;;;;0.88;0.38;;;;;;;32.30;59.89;100202.66;7392446;19;20464;-51
2023/10/07 00:57:35;;;;;;;0.75;0.57;;;;;;;30.25;66.04;100206.09;7391217;19;20021;-52
2023/10/07 01:00:28;;;;;;;0.00;0.00;;;;;;;30.48;65.47;100206.38;7391543;19;20014;-51
2023/10/07 01:03:12;;;;;;;0.00;0.00;;;;;;;29.97;66.88;100202.59;7392911;19;20011;-51
2023/10/07 01:05:50;;;;;;;0.28;0.10;;;;;;;30.60;65.70;100195.78;7395627;19;20493;-52
2023/10/07 01:08:20;;;;;;;0.10;0.10;;;;;;;29.25;69.11;100211.31;7391190;19;20017;-52
2023/10/07 01:10:54;;;;;;;0.30;0.00;;;;;;;28.71;71.85;100201.22;7392734;19;20459;-52
2023/10/07 01:13:29;;;;;;;0.10;0.10;;;;;;;28.94;69.43;100199.53;7394789;19;20015;-51
2023/10/07 01:15:55;;;;;;;0.30;0.20;;;;;;;28.28;71.68;100186.28;7396931;19;20010;-52
2023/10/07 01:18:22;;;;;;;0.00;0.00;;;;;;;28.65;70.97;100190.03;7397715;19;20014;-51
2023/10/07 01:21:05;;;;;;;0.10;0.10;;;;;;;28.70;69.45;100186.13;7399047;19;20070;-51
2023/10/07 01:23:34;;;;;;;0.45;0.20;;;;;;;29.79;66.09;100184.00;7399304;19;20026;-52
2023/10/07 01:26:02;;;;;;;3.25;0.20;;;;;;;28.06;70.32;100192.25;7403753;19;20010;-52
2023/10/07 01:28:32;;;;;;;0.10;0.10;;;;;;;27.85;73.46;100189.81;7400421;19;20015;-52
2023/10/07 01:31:07;;;;;;;0.05;0.05;;;;;;;27.62;75.34;100186.41;7399659;19;20022;-51
2023/10/07 01:33:51;;;;;;;0.30;0.30;;;;;;;27.96;74.32;100180.69;7397559;19;20019;-52
2023/10/07 01:36:24;;;;;;;0.70;0.05;;;;;;;28.17;73.38;100181.06;7403532;19;20006;-51
2023/10/07 01:38:51;;;;;;;0.65;0.28;;;;;;;28.31;72.00;100185.06;7398083;19;20014;-51
2023/10/07 01:41:23;;;;;;;0.00;0.00;;;;;;;27.70;75.15;100176.38;7400153;19;20463;-51
2023/10/07 01:44:00;;;;;;;1.55;0.10;;;;;;;31.01;63.30;100162.84;7399117;19;20096;-51
2023/10/07 01:46:28;;;;;;;2.17;0.20;;;;;;;29.56;66.02;100180.72;7402905;19;20010;-52
2023/10/07 01:48:59;;;;;;;0.10;0.10;;;;;;;28.69;67.74;100167.41;7399329;19;20006;-51
2023/10/07 01:51:29;;;;;;;0.13;0.13;;;;;;;28.57;68.47;100168.53;7398773;19;20039;-52
2023/10/07 01:53:56;;;;;;;0.28;0.20;;;;;;;28.81;67.66;100161.88;7395834;19;20403;-51
2023/10/07 01:56:26;;;;;;;0.10;0.10;;;;;;;29.14;65.60;100175.31;7399921;19;20019;-51
2023/10/07 01:58:54;;;;;;;0.10;0.10;;;;;;;28.73;66.53;100162.00;7398157;19;20010;-51
2023/10/07 02:01:22;;;;;;;0.30;0.30;;;;;;;27.59;71.20;100167.56;7397033;19;20015;-52
2023/10/07 02:03:49;;;;;;;0.40;0.00;;;;;;;27.89;70.74;100170.09;7395718;19;20027;-52
2023/10/07 02:06:18;;;;;;;1.27;0.05;;;;;;;27.74;71.17;100158.81;7400742;19;20010;-51
2023/10/07 02:08:47;;;;;;;0.00;0.00;;;;;;;30.99;61.85;100138.91;7397652;19;20078;-51
2023/10/07 02:11:25;;;;;;;1.83;0.65;;;;;;;31.21;58.93;100143.34;7397169;19;20025;-51
2023/10/07 02:13:52;;;;;;;1.55;0.57;;;;;;;31.81;56.23;100146.78;7399157;19;20010;-51
2023/10/07 02:16:19;;;;;;;0.10;0.00;;;;;;;31.85;55.65;100147.03;7401371;19;20066;-52
2023/10/07 02:18:47;;;;;;;0.38;0.20;;;;;;;32.02;54.66;100149.66;7396038;19;20045;-52
2023/10/07 02:21:17;;;;;;;0.00;0.00;;;;;;;30.23;59.06;100151.34;7397527;19;20104;-51
2023/10/07 02:23:44;;;;;;;0.10;0.10;;;;;;;30.62;57.76;100144.91;7395116;19;20508;-51
2023/10/07 02:26:19;;;;;;;0.20;0.20;;;;;;;30.93;56.66;100133.47;7400455;19;20014;-51
2023/10/07 02:28:52;;;;;;;0.10;0.10;;;;;;;31.26;55.35;100142.25;7394640;19;20066;-52
2023/10/07 02:31:21;;;;;;;0.10;0.10;;;;;;;30.78;56.16;100145.31;7397544;19;20026;-52
2023/10/07 02:33:51;;;;;;;3.40;0.38;;;;;;;31.97;53.77;100130.59;7394100;19;20014;-52
2023/10/07 02:36:28;;;;;;;0.25;0.10;;;;;;;32.02;53.07;100138.88;7398523;19;20022;-51
2023/10/07 02:39:04;;;;;;;1.23;0.47;;;;;;;31.48;53.31;100137.31;7396161;19;20027;-51
2023/10/07 02:41:31;;;;;;;0.28;0.22;;;;;;;31.21;53.34;100138.34;7395407;19;20507;-51
2023/10/07 02:44:05;;;;;;;0.00;0.00;;;;;;;31.76;52.60;100122.69;7395290;19;20022;-52
2023/10/07 02:46:32;;;;;;;0.57;0.30;;;;;;;31.07;53.11;100125.84;7401766;19;20019;-51
2023/10/07 02:49:05;;;;;;;0.57;0.30;;;;;;;32.54;51.00;100130.06;7397292;19;20030;-51
2023/10/07 02:51:33;;;;;;;0.20;0.20;;;;;;;32.78;49.43;100125.06;7394860;19;20027;-51
2023/10/07 02:54:15;;;;;;;0.10;0.10;;;;;;;33.06;48.35;100120.31;7392257;19;20027;-51
2023/10/07 02:56:44;;;;;;;0.10;0.10;;;;;;;32.85;48.48;100121.91;7399622;19;20568;-51
2023/10/07 02:59:34;;;;;;;0.28;0.10;;;;;;;33.11;47.81;100110.53;7395486;19;20411;-51
2023/10/07 03:02:12;;;;;;;3.08;0.10;;;;;;;33.36;46.81;100113.53;7395723;19;20015;-51
2023/10/07 03:04:43;;;;;;;2.08;0.55;;;;;;;33.56;46.38;100114.78;7394770;19;20038;-51
2023/10/07 03:07:16;;;;;;;;;;;;;;;33.31;46.55;100114.69;7400389;19;20022;-51
2023/10/07 03:09:54;;;;;;;0.08;0.00;;;;;;;33.24;45.89;100118.56;7395493;19;19915;-51
2023/10/07 03:12:30;;;;;;;0.20;0.13;;;;;;;32.80;46.61;100120.19;7395902;19;20021;-52
2023/10/07 03:15:41;;;;;;;0.20;0.10;;;;;;;31.93;48.05;100108.00;7396502;19;20013;-52
2023/10/07 03:17:46;;;;;;;0.68;0.52;;;;;;;31.38;48.43;100115.06;7395038;19;20402;-51
2023/10/07 03:28:18;;;;;;;0.57;0.40;;;;;;;28.87;54.57;100110.75;7395599;19;20022;-51
2023/10/07 03:30:51;;;;;;;1.65;0.25;;;;;;;27.75;57.50;100114.50;7394872;19;20017;-51
2023/10/07 03:33:23;;;;;;;0.45;0.20;;;;;;;28.99;54.71;100103.09;7393867;19;20078;-51
2023/10/07 03:38:25;;;;;;;0.13;0.13;;;;;;;28.75;55.41;100118.38;7394719;19;20017;-52
2023/10/07 03:40:55;;;;;;;3.20;0.20;;;;;;;28.42;55.92;100130.13;7395154;19;20011;-51
2023/10/07 03:43:25;;;;;;;1.15;0.47;;;;;;;27.93;56.93;100133.22;7394736;19;20014;-51
2023/10/07 03:45:56;;;;;;;0.30;0.30;;;;;;;27.55;59.06;100125.03;7397253;19;20018;-52
2023/10/07 03:48:23;;;;;;;0.10;0.10;;;;;;;26.15;62.80;100127.75;7398168;19;20007;-51
2023/10/07 03:51:10;;;;;;;0.10;0.10;;;;;;;27.18;60.50;100122.53;7394849;19;20010;-52
2023/10/07 03:53:44;;;;;;;0.10;0.10;;;;;;;28.51;58.01;100120.81;7393153;19;20018;-51
2023/10/07 03:56:12;;;;;;;9.63;0.73;;;;;;;28.31;57.30;100133.50;7397252;19;20377;-51
2023/10/07 03:58:42;;;;;;;0.10;0.00;;;;;;;28.76;55.27;100125.66;7395153;19;20014;-51
2023/10/07 04:01:17;;;;;;;0.57;0.35;;;;;;;27.43;58.84;100137.56;7394709;19;20013;-51
2023/10/07 04:03:47;;;;;;;0.98;0.47;;;;;;;28.84;55.22;100132.00;7394603;19;20017;-52
2023/10/07 04:06:16;;;;;;;3.30;0.63;;;;;;;28.63;55.55;100123.16;7396471;19;20031;-51
2023/10/07 04:08:44;;;;;;;0.10;0.10;;;;;;;29.53;53.14;100115.94;7394930;19;20021;-52
2023/10/07 04:11:19;;;;;;;17.67;1.02;;;;;;;29.70;52.61;100117.91;7394384;19;20030;-51
2023/10/07 04:13:46;;;;;;;0.60;0.20;;;;;;;30.40;51.33;100119.56;7396897;19;20027;-52
2023/10/07 04:16:24;;;;;;;0.17;0.10;;;;;;;30.23;51.00;100119.72;7397046;19;20017;-51
2023/10/07 04:19:30;;;;;;;0.15;0.15;;;;;;;30.34;50.46;100128.50;7394288;19;20088;-51
2023/10/07 04:21:58;;;;;;;1.08;0.35;;;;;;;32.10;47.09;100130.00;7393179;19;20070;-52
2023/10/07 04:24:25;;;;;;;8.98;0.65;;;;;;;31.54;47.22;100129.84;7393905;19;20043;-51
2023/10/07 04:26:54;;;;;;;0.40;0.20;;;;;;;32.37;45.47;100126.72;7398015;19;20017;-52
2023/10/07 04:29:24;;;;;;;0.25;0.15;;;;;;;31.30;46.78;100134.66;7393940;19;20492;-52
2023/10/07 04:31:53;;;;;;;0.20;0.20;;;;;;;30.68;47.87;100138.84;7393386;19;20026;-51
2023/10/07 04:34:20;;;;;;;0.15;0.15;;;;;;;29.93;48.37;100141.97;7392318;19;20026;-51
2023/10/07 04:39:29;;;;;;;0.10;0.10;;;;;;;29.07;50.29;100143.88;7392178;19;20470;-51
2023/10/07 04:41:59;;;;;;;0.10;0.10;;;;;;;32.02;45.74;100135.25;7393787;19;20035;-51
2023/10/07 04:49:57;;;;;;;0.10;0.10;;;;;;;32.79;43.31;100133.09;7393659;19;20007;-51
2023/10/07 04:52:30;;;;;;;0.40;0.30;;;;;;;31.79;44.70;100133.00;7398339;19;20006;-51
2023/10/07 04:54:58;;;;;;;0.10;0.10;;;;;;;33.28;42.76;100127.47;7401936;19;20022;-51
2023/10/07 05:00:27;;;;;;;0.65;0.32;;;;;;;33.76;41.33;100127.53;7400286;19;20496;-51
2023/10/07 05:03:11;;;;;;;0.25;0.10;;;;;;;32.34;42.90;100131.59;7400081;19;20470;-52
2023/10/07 05:05:37;;;;;;;1.08;0.30;;;;;;;28.53;48.14;100149.63;7400739;19;20025;-51
2023/10/07 05:08:19;;;;;;;2.65;0.88;;;;;;;29.19;48.43;100147.72;7398933;19;20011;-51
2023/10/07 05:10:52;;;;;;;0.55;0.20;;;;;;;30.85;45.97;100130.00;7398386;19;20047;-51
2023/10/07 05:13:19;;;;;;;0.20;0.20;;;;;;;30.39;45.93;100132.41;7401648;19;20339;-51
2023/10/07 05:15:45;;;;;;;21.35;0.68;;;;;;;28.24;49.48;100134.34;7401991;19;20014;-51
2023/10/07 05:18:17;;;;;;;0.68;0.52;;;;;;;27.25;52.02;100138.84;7400356;19;20007;-51
2023/10/07 05:20:46;;;;;;;2.50;0.70;;;;;;;26.46;54.88;100131.97;7398283;19;20025;-51
2023/10/07 05:23:17;;;;;;;3.63;0.25;;;;;;;27.93;52.53;100132.44;7399450;19;20031;-51
2023/10/07 05:25:50;;;;;;;0.10;0.10;;;;;;;28.43;51.68;100123.03;7399851;19;20011;-51
2023/10/07 05:28:20;;;;;;;0.90;0.25;;;;;;;29.57;48.95;100110.50;7401398;19;20379;-51
2023/10/07 05:30:51;;;;;;;0.10;0.10;;;;;;;30.01;48.25;100118.09;7400013;19;20039;-51
2023/10/07 05:33:20;;;;;;;0.75;0.30;;;;;;;30.44;47.35;100117.75;7397744;19;20014;-51
2023/10/07 05:35:49;;;;;;;0.22;0.20;;;;;;;31.35;45.79;100127.81;7400226;19;20076;-51
2023/10/07 05:38:19;;;;;;;0.10;0.00;;;;;;;32.23;44.57;100131.59;7399550;19;20047;-51
2023/10/07 05:40:47;;;;;;;0.10;0.05;;;;;;;32.54;43.28;100135.06;7401601;19;20007;-51
2023/10/07 05:43:13;;;;;;;0.63;0.40;;;;;;;33.20;42.28;100129.88;7397624;19;20027;-51
2023/10/07 05:45:40;;;;;;;0.30;0.30;;;;;;;33.54;41.83;100129.09;7398633;19;20093;-51
2023/10/07 05:48:08;;;;;;;1.00;0.98;;;;;;;33.59;41.29;100122.19;7398485;19;20018;-51
2023/10/07 05:50:34;;;;;;;0.20;0.20;;;;;;;33.79;40.64;100129.13;7398594;19;20017;-51
2023/10/07 05:53:05;;;;;;;0.20;0.17;;;;;;;33.99;40.01;100124.56;7400788;19;20010;-51
2023/10/07 05:55:34;;;;;;;1.05;0.35;;;;;;;34.45;39.50;100120.69;7398497;19;20015;-51
2023/10/07 05:58:02;;;;;;;1.67;0.32;;;;;;;34.77;38.98;100122.50;7397903;19;20014;-51
2023/10/07 06:00:31;;;;;;;0.10;0.05;;;;;;;35.27;38.34;100115.81;7398417;19;20016;-51
2023/10/07 06:02:59;;;;;;;0.10;0.10;;;;;;;35.33;37.74;100113.22;7395575;19;20514;-51
2023/10/07 06:05:27;;;;;;;1.50;0.68;;;;;;;35.28;37.43;100111.50;7398882;19;20395;-51
2023/10/07 06:07:59;;;;;;;1.88;0.40;;;;;;;35.26;37.34;100105.63;7397767;19;20022;-52
2023/10/07 06:10:26;;;;;;;2.97;1.73;;;;;;;35.37;37.61;100107.66;7398036;19;20027;-51
2023/10/07 06:12:54;;;;;;;1.70;0.28;;;;;;;35.48;37.03;100112.59;7398102;19;20023;-51
2023/10/07 06:15:23;;;;;;;1.63;0.25;;;;;;;35.37;36.77;100113.44;7398081;19;20019;-51
2023/10/07 06:17:50;;;;;;;0.52;0.30;;;;;;;35.18;36.91;100113.88;7397938;19;20039;-52
2023/10/07 06:20:16;;;;;;;1.70;0.55;;;;;;;35.43;37.02;100105.06;7398677;19;20010;-51
2023/10/07 06:22:45;;;;;;;0.35;0.35;;;;;;;35.56;36.61;100107.22;7397211;19;20026;-51
2023/10/07 06:25:18;;;;;;;0.40;0.40;;;;;;;36.07;36.30;100106.88;7397468;19;20044;-50
2023/10/07 06:27:44;;;;;;;0.20;0.10;;;;;;;36.01;36.31;100103.69;7397555;19;20015;-51
2023/10/07 06:30:20;;;;;;;0.20;0.00;;;;;;;36.03;36.61;100098.00;7397983;19;20010;-51
2023/10/07 06:32:55;;;;;;;0.15;0.15;;;;;;;35.86;36.42;100107.25;7395416;19;20011;-52
2023/10/07 06:35:23;;;;;;;10.35;0.80;;;;;;;35.87;36.70;100123.25;7397875;19;20014;-52
2023/10/07 06:37:52;;;;;;;1.30;0.30;;;;;;;36.26;36.53;100129.59;7397021;19;20066;-51
2023/10/07 06:40:31;;;;;;;0.17;0.17;;;;;;;36.35;37.08;100143.84;7396848;19;20022;-52
2023/10/07 06:43:01;;;;;;;0.30;0.30;;;;;;;36.13;37.96;100156.50;7397288;19;20037;-52
2023/10/07 06:45:38;;;;;;;0.20;0.10;;;;;;;36.75;37.64;100159.59;7397778;19;20007;-52
2023/10/07 06:48:09;;;;;;;3.20;0.63;;;;;;;36.56;37.47;100163.00;7396759;19;20019;-51
2023/10/07 06:50:41;;;;;;;1.20;0.15;;;;;;;36.34;38.09;100159.00;7396133;19;20014;-51
2023/10/07 06:53:13;;;;;;;15.85;0.50;;;;;;;36.29;38.31;100168.91;7395534;19;20539;-51
2023/10/07 06:55:44;;;;;;;0.10;0.10;;;;;;;36.24;38.37;100167.19;7396871;19;20031;-51
2023/10/07 06:58:11;;;;;;;;;;;;;;;36.39;38.72;100163.59;7397066;19;20003;-52
2023/10/07 07:00:47;;;;;;;0.43;0.10;;;;;;;36.38;38.84;100165.00;7396746;19;20366;-52
2023/10/07 07:03:19;;;;;;;0.40;0.40;;;;;;;36.66;38.34;100162.75;7396706;19;20011;-52
2023/10/07 07:05:46;;;;;;;4.25;0.57;;;;;;;36.46;38.76;100171.22;7397769;19;20368;-51
2023/10/07 07:08:13;;;;;;;1.98;0.43;;;;;;;36.53;38.88;100170.13;7396152;19;20007;-51
2023/10/07 07:10:40;;;;;;;1.88;0.85;;;;;;;36.84;38.77;100173.06;7396580;19;20550;-52
2023/10/07 07:13:13;;;;;;;3.25;0.75;;;;;;;37.20;38.26;100185.66;7398039;19;20079;-52
2023/10/07 07:15:43;;;;;;;8.68;1.02;;;;;;;37.16;38.22;100186.22;7397649;19;20024;-52
2023/10/07 07:23:34;;;;;;;4.65;0.68;;;;;;;36.57;39.02;100193.53;7395458;19;20420;-51
2023/10/07 07:28:30;;;;;;;0.80;0.65;;;;;;;36.40;39.66;100173.81;7395314;19;20288;-51
2023/10/07 07:30:57;;;;;;;1.83;1.05;;;;;;;35.64;40.46;100183.00;7395000;19;20515;-52
2023/10/07 07:33:35;;;;;;;1.58;0.73;;;;;;;35.38;41.00;100184.50;7394735;19;20014;-52
2023/10/07 07:36:48;;;;;;;1.80;0.52;;;;;;;35.31;41.59;100187.69;7396723;19;20044;-51
2023/10/07 07:38:54;;;;;;;0.47;0.30;;;;;;;36.03;40.36;100196.59;7392488;19;20015;-51
2023/10/07 07:41:27;;;;;;;0.80;0.55;;;;;;;35.89;40.78;100224.84;7392807;19;20459;-52
2023/10/07 07:43:58;;;;;;;0.68;0.45;;;;;;;36.11;40.32;100220.19;7394266;19;20021;-51
2023/10/07 07:46:26;;;;;;;3.53;0.45;;;;;;;36.35;40.09;100221.44;7396767;19;20018;-51
2023/10/07 07:48:53;;;;;;;2.65;0.82;;;;;;;35.95;40.66;100193.25;7394940;19;20344;-52
2023/10/07 07:51:24;;;;;;;0.77;0.57;;;;;;;37.59;39.06;100183.09;7394720;19;20014;-52
2023/10/07 07:53:51;;;;;;;0.63;0.28;;;;;;;38.24;37.83;100186.66;7393365;19;20019;-52
2023/10/07 07:56:19;;;;;;;0.32;0.30;;;;;;;38.13;37.81;100202.19;7397600;19;20026;-52
2023/10/07 07:58:48;;;;;;;1.40;0.90;;;;;;;38.59;36.89;100192.50;7394418;19;20031;-52
2023/10/07 08:01:18;;;;;;;4.15;1.08;;;;;;;38.06;37.49;100150.22;7394734;19;20010;-51
2023/10/07 08:03:44;;;;;;;0.30;0.15;;;;;;;37.59;37.91;100147.47;7394536;19;20015;-52
2023/10/07 08:06:19;;;;;;;1.08;0.32;;;;;;;37.63;37.83;100159.25;7396279;19;20020;-52
2023/10/07 08:08:49;;;;;;;4.25;0.77;;;;;;;37.86;37.55;100177.03;7394196;19;20010;-52
2023/10/07 08:11:17;;;;;;;1.67;0.28;;;;;;;37.94;37.75;100176.66;7393572;19;20018;-52
2023/10/07 08:13:45;;;;;;;1.17;0.30;;;;;;;38.14;36.98;100189.13;7397437;19;20023;-51
2023/10/07 08:16:18;;;;;;;5.40;1.23;;;;;;;36.65;38.70;100193.91;7395724;19;20337;-51
2023/10/07 08:18:50;;;;;;;1.45;0.40;;;;;;;35.52;40.04;100202.63;7398166;19;20031;-51
2023/10/07 08:21:16;;;;;;;0.93;0.43;;;;;;;34.59;42.03;100211.19;7393914;19;20014;-52
2023/10/07 08:23:51;;;;;;;1.02;0.57;;;;;;;33.40;43.50;100223.50;7392734;19;20007;-52
2023/10/07 08:26:22;;;;;;;0.30;0.20;;;;;;;32.67;44.96;100227.53;7395098;19;20021;-52
2023/10/07 08:31:36;;;;;;;1.98;0.90;;;;;;;34.04;44.13;100209.41;7393412;19;20014;-52
2023/10/07 08:36:44;;;;;;;0.43;0.43;;;;;;;33.48;45.18;100192.25;7396111;19;20039;-52
2023/10/07 08:39:10;;;;;;;0.57;0.38;;;;;;;32.78;46.55;100206.63;7393333;19;20455;-52
2023/10/07 08:41:40;;;;;;;1.55;0.43;;;;;;;32.85;46.84;100199.09;7393719;19;20048;-52
2023/10/07 08:44:14;;;;;;;0.68;0.40;;;;;;;33.61;46.17;100232.09;7393324;19;20014;-52
2023/10/07 08:46:48;;;;;;;2.30;1.10;;;;;;;33.39;46.78;100239.34;7396026;19;20024;-52
2023/10/07 08:49:26;;;;;;;2.50;1.00;;;;;;;34.27;45.92;100241.88;7393417;19;20002;-52
2023/10/07 08:51:54;;;;;;;4.57;1.15;;;;;;;33.70;47.03;100228.28;7393047;19;20011;-52
2023/10/07 08:54:31;;;;;;;2.95;0.98;;;;;;;34.17;46.09;100235.50;7391105;19;20014;-52
2023/10/07 08:57:06;;;;;;;4.38;0.60;;;;;;;34.27;45.99;100203.53;7395075;19;20030;-52
2023/10/07 08:59:32;;;;;;;2.67;0.50;;;;;;;34.05;46.33;100208.75;7392865;19;20040;-52
2023/10/07 09:02:12;;;;;;;1.67;0.75;;;;;;;34.14;46.42;100224.44;7392878;19;20006;-52
2023/10/07 09:04:40;;;;;;;0.97;0.47;;;;;;;33.59;47.42;100231.97;7396869;19;20031;-52
2023/10/07 09:07:11;;;;;;;4.32;0.55;;;;;;;34.17;46.81;100218.16;7396608;19;20046;-52
2023/10/07 09:09:39;;;;;;;2.00;0.45;;;;;;;34.26;46.43;100205.66;7392395;19;20014;-53
2023/10/07 09:12:18;;;;;;;0.25;0.17;;;;;;;34.26;46.54;100213.59;7393131;19;20468;-53
2023/10/07 09:14:51;;;;;;;0.40;0.22;;;;;;;35.49;44.90;100211.88;7392596;19;20070;-52
2023/10/07 09:17:23;;;;;;;1.45;0.85;;;;;;;36.15;43.61;100211.69;7396799;19;20011;-52
2023/10/07 09:19:53;;;;;;;0.95;0.57;;;;;;;35.05;45.18;100224.66;7391475;19;20370;-52
2023/10/07 09:22:35;;;;;;;0.47;0.22;;;;;;;34.40;45.83;100239.69;7391677;19;20045;-52
2023/10/07 09:25:17;;;;;;;1.88;0.65;;;;;;;35.36;44.91;100227.84;7391774;19;20349;-52
2023/10/07 09:27:54;;;;;;;0.55;0.40;;;;;;;38.04;41.39;100226.53;7391106;19;20019;-53
2023/10/07 09:33:14;;;;;;;2.15;0.50;;;;;;;36.86;41.73;100237.03;7391310;19;20344;-53
2023/10/07 09:35:43;;;;;;;3.80;1.33;;;;;;;36.53;42.01;100244.81;7391288;19;20026;-54
2023/10/07 09:38:33;;;;;;;5.53;0.43;;;;;;;37.40;40.56;100241.81;7396343;19;20034;-53
2023/10/07 09:44:01;;;;;;;4.68;0.60;;;;;;;35.99;42.64;100257.28;7396144;19;19918;-52
2023/10/07 09:46:27;;;;;;;3.83;0.95;;;;;;;36.69;41.98;100252.16;7400974;19;20045;-53
2023/10/07 09:48:57;;;;;;;4.45;1.48;;;;;;;36.51;41.83;100254.19;7399570;19;20014;-52
2023/10/07 09:51:34;;;;;;;0.20;0.20;;;;;;;36.36;41.82;100243.25;7398225;19;20341;-52
2023/10/07 09:54:22;;;;;;;2.42;0.60;;;;;;;36.01;42.26;100243.66;7397187;19;20011;-52
2023/10/07 09:56:59;;;;;;;0.55;0.50;;;;;;;36.30;42.47;100245.84;7401892;19;20013;-52
2023/10/07 10:00:16;;;;;;;0.55;0.20;;;;;;;36.89;41.67;100255.34;7397906;19;20406;-52
2023/10/07 10:02:52;;;;;;;2.42;0.63;;;;;;;36.17;42.71;100238.66;7397755;19;20025;-52
2023/10/07 10:05:28;;;;;;;3.92;0.68;;;;;;;36.67;42.24;100237.56;7398123;19;20034;-52
2023/10/07 10:08:13;;;;;;;2.00;1.10;;;;;;;39.50;39.46;100222.28;7398224;19;20014;-52
2023/10/07 10:10:45;;;;;;;2.40;0.50;;;;;;;41.08;36.78;100240.13;7398171;19;20070;-52
2023/10/07 10:16:14;;;;;;;0.63;0.38;;;;;;;42.15;34.74;100264.47;7398218;19;20010;-53
2023/10/07 10:18:50;;;;;;;7.47;0.30;;;;;;;41.78;34.98;100276.59;7397718;19;20031;-52
2023/10/07 10:21:22;;;;;;;2.78;1.00;;;;;;;43.83;32.74;100249.38;7401980;19;20006;-52
2023/10/07 10:23:51;;;;;;;1.17;0.63;;;;;;;44.44;31.55;100256.41;7396957;19;20023;-52
2023/10/07 10:26:27;;;;;;;1.45;0.47;;;;;;;45.38;30.67;100240.19;7397323;19;20105;-52
2023/10/07 10:29:04;;;;;;;0.88;0.40;;;;;;;45.75;29.67;100247.28;7397056;19;20015;-52
2023/10/07 10:31:32;;;;;;;2.20;0.68;;;;;;;46.05;29.26;100232.16;7396313;19;20017;-55
2023/10/07 10:34:04;;;;;;;0.30;0.10;;;;;;;46.14;28.99;100246.22;7395079;19;20374;-55
2023/10/07 10:36:48;;;;;;;2.22;0.75;;;;;;;46.72;28.12;100231.28;7398262;19;20501;-55
2023/10/07 10:39:24;;;;;;;7.05;0.50;;;;;;;46.85;27.79;100232.84;7397248;19;20010;-56
2023/10/07 10:41:51;;;;;;;1.08;0.70;;;;;;;47.18;27.10;100224.94;7395435;19;20011;-56
2023/10/07 10:44:17;;;;;;;3.80;0.30;;;;;;;47.66;26.80;100233.25;7398141;19;20088;-56
2023/10/07 10:46:46;;;;;;;1.70;0.32;;;;;;;48.22;26.34;100236.34;7396783;19;20018;-56
2023/10/07 10:49:15;;;;;;;2.75;1.23;;;;;;;48.53;26.23;100228.25;7393726;19;20011;-55
2023/10/07 10:51:45;;;;;;;1.38;0.43;;;;;;;48.77;25.88;100227.47;7395362;19;20018;-56
2023/10/07 10:54:13;;;;;;;2.13;0.22;;;;;;;48.54;25.79;100239.31;7394280;19;20018;-56
2023/10/07 10:57:00;;;;;;;2.03;0.52;;;;;;;46.58;26.79;100237.06;7397393;19;20010;-56
2023/10/07 10:59:43;;;;;;;2.17;0.80;;;;;;;48.69;25.44;100228.94;7396323;19;20086;-56
2023/10/07 11:02:22;;;;;;;1.02;0.50;;;;;;;48.51;25.26;100243.78;7396203;19;20021;-55
2023/10/07 11:04:56;;;;;;;1.50;0.98;;;;;;;47.56;25.71;100239.13;7395420;19;20017;-55
2023/10/07 11:07:23;;;;;;;5.32;1.27;;;;;;;48.72;24.97;100243.72;7399467;19;20498;-54
2023/10/07 11:09:51;;;;;;;1.35;0.95;;;;;;;46.65;27.05;100241.53;7399664;19;20010;-55
2023/10/07 11:12:18;;;;;;;2.42;0.90;;;;;;;47.47;26.24;100243.53;7398117;19;20021;-55
2023/10/07 11:14:48;;;;;;;0.55;0.20;;;;;;;49.04;24.83;100225.91;7396769;19;20007;-55
2023/10/07 11:17:18;;;;;;;2.90;0.68;;;;;;;48.80;24.56;100237.84;7395635;19;20523;-56
2023/10/07 11:19:48;;;;;;;0.47;0.35;;;;;;;49.02;24.96;100231.84;7394339;19;20014;-55
2023/10/07 11:22:19;;;;;;;2.67;1.58;;;;;;;48.74;24.79;100252.59;7400157;19;20015;-54
2023/10/07 11:24:48;;;;;;;4.13;0.45;;;;;;;49.99;23.69;100250.69;7395596;19;20010;-53
2023/10/07 11:27:15;;;;;;;5.38;0.80;;;;;;;43.82;26.84;100259.63;7394343;19;20010;-54
2023/10/07 11:29:42;;;;;;;1.15;0.50;;;;;;;27.26;58.83;100281.28;7395801;19;20347;-54
2023/10/07 11:32:08;;;;;;;0.65;0.17;;;;;;;23.88;100.00;100301.16;7399363;19;20074;-53
2023/10/07 11:34:38;;;;;;;0.95;0.35;;;;;;;22.32;100.00;100306.03;7392720;19;20109;-55
2023/10/07 11:37:09;;;;;;;0.63;0.38;;;;;;;22.47;100.00;100303.41;7398652;19;20014;-55
2023/10/07 11:39:48;;;;;;;4.25;1.35;;;;;;;22.60;100.00;100296.97;7395362;19;20073;-56
2023/10/07 11:42:14;;;;;;;5.38;0.68;;;;;;;22.44;100.00;100284.59;7400175;19;20010;-55
2023/10/07 11:44:42;;;;;;;1.92;0.95;;;;;;;22.23;100.00;100280.94;7395356;19;20011;-56
2023/10/07 11:47:11;;;;;;;4.80;1.10;;;;;;;25.33;100.00;100278.50;7395177;19;20018;-56
2023/10/07 11:49:37;;;;;;;1.00;0.57;;;;;;;42.62;43.00;100248.84;7395572;19;20017;-56
2023/10/07 11:52:04;;;;;;;3.22;0.28;;;;;;;45.94;33.56;100239.41;7394266;19;20459;-56
2023/10/07 11:54:34;;;;;;;1.20;0.10;;;;;;;43.76;32.28;100255.81;7397824;19;20010;-56
2023/10/07 11:57:02;;;;;;;2.25;0.80;;;;;;;45.99;31.04;100249.75;7394796;19;20014;-55
2023/10/07 11:59:28;;;;;;;5.05;0.93;;;;;;;46.68;30.14;100242.28;7395845;19;20414;-54
2023/10/07 12:01:54;;;;;;;0.93;0.52;;;;;;;47.04;29.29;100237.41;7397017;19;20014;-55
2023/10/07 12:04:21;;;;;;;4.60;0.82;;;;;;;47.28;28.57;100231.63;7396732;19;20349;-55
2023/10/07 12:06:50;;;;;;;3.97;1.25;;;;;;;47.72;27.47;100215.53;7394010;19;20340;-54
2023/10/07 12:09:21;;;;;;;11.65;1.45;;;;;;;47.68;27.03;100221.44;7393772;19;20024;-55
2023/10/07 12:11:49;;;;;;;;;;;;;;;47.37;27.14;100222.81;7395101;19;20014;-54
2023/10/07 12:14:18;;;;;;;3.35;0.75;;;;;;;47.07;27.17;100221.19;7392603;19;19928;-55
2023/10/07 12:16:44;;;;;;;0.63;0.60;;;;;;;47.63;26.43;100223.63;7390163;19;20014;-55
2023/10/07 12:19:11;;;;;;;1.75;0.90;;;;;;;43.15;33.41;100224.44;7391783;19;20025;-54
2023/10/07 12:21:39;;;;;;;4.40;0.75;;;;;;;29.43;52.91;100261.53;7392205;19;20013;-55
2023/10/07 12:24:06;;;;;;;2.22;0.22;;;;;;;23.75;100.00;100301.22;7393401;19;20463;-54
2023/10/07 12:26:32;;;;;;;2.20;0.77;;;;;;;21.80;100.00;100294.63;7392290;19;20015;-54
2023/10/07 12:28:58;;;;;;;0.32;0.28;;;;;;;20.83;100.00;100295.13;7392696;19;20037;-54
2023/10/07 12:31:24;;;;;;;3.13;0.95;;;;;;;20.46;100.00;100283.78;7393572;19;20006;-55
2023/10/07 12:33:50;;;;;;;1.05;0.70;;;;;;;20.25;100.00;100285.56;7392764;19;20011;-55